Terminal Aerodrome Forecast
Issued by NWS Wilmington, OH

Current Version | Previous Version | Graphics & Text | Print | Product List | Glossary On
Versions: 1 2 3 4 5 6 7 8 9 10 11 12 13 14 15 16
000
FTUS41 KILN 200500
TAFCMH
TAF
KCMH 200521Z 2006/2106 27012KT P6SM VCSH OVC035
     FM201000 26012KT P6SM OVC035
     FM201300 26012KT P6SM SCT035
     FM201500 25013G22KT P6SM SCT035
     FM201800 25015G24KT P6SM OVC035
     FM210000 26013KT P6SM OVC030=

USA.gov is the U.S. government's official web portal to all federal, state and local government web resources and services.